New Tokyo, Japan

6:04 PM JST on March 05, 2015 (GMT +0900)
New Tokyo International (Narita) | Change Station
CLOSE
Current Station
Airport
Location: New Tokyo,
Elevation: 144 ft
Nearby Weather Stations

Elev 144 ft 35.77 °N, 140.39 °E | Updated 34 minutes ago

Mostly Cloudy
Mostly Cloudy
48 °F
Feels Like 48 °F
N
7
Wind Variable Wind from East

Today
High -- | Low -- °F
--% Chance of Precip.
Yesterday
High -- | Low -- °F
Precip. -- in
6:04 AM 5:36 PM
Full, 100% visible
Pressure 30.04 in
Visibility 6.2 miles
Clouds Few 3000 ft
Mostly Cloudy 8000 ft
Dew Point 28 °F
Humidity 46%
Rainfall 0.00 in
Snow Depth Not available.
UV 0 out of 12
Pollen Not available.
Air Quality Not available.
Flu Activity Not available.
METAR RJAA 050830Z 09006KT 9999 FEW030 BKN080 09/M02 Q1017 BECMG 04005KT RMK 1CU030 7AC080 A3005

More Conditions Fewer Conditions

Pressure 30.04 in
Visibility 6.2 miles
Clouds Few 3000 ft
Mostly Cloudy 8000 ft
Dew Point 28 °F
Humidity 46%
Rainfall 0.00 in
Snow Depth Not available.
UV 0 out of 12
Pollen Not available.
Air Quality Not available.
Flu Activity Not available.
METAR RJAA 050830Z 09006KT 9999 FEW030 BKN080 09/M02 Q1017 BECMG 04005KT RMK 1CU030 7AC080 A3005

More Conditions Fewer Conditions

10-Day Weather Forecast

Almanac

Astronomy

Mar. 05, 2015 Rise Set
Actual Time
Civil Twilight
Nautical Twilight
Astronomical Twilight
Moon
Length of Visible Light
Length of Day
Tomorrow will be .
, % of the Moon is Illuminated

Today's Extremes

Country Highs Country Lows

Community

WunderPhotos

Upload Photos

1,802,704 photos uploaded!

WunderBlogs® & News

Nearby

Air Quality

  Air Quality AQ Index Pollutant
Not available.

Snow Depth

Station Depth Elevation

Earthquake Activity

City Distance Mag. Time & Date
Minimum magnitude displayed is 2.5.

Coastal Water Temperatures

Place Temperature

Nearby Weather Stations